sensor_id;sensor_type;location;lat;lon;timestamp;P1;durP1;ratioP1;P2;durP2;ratioP2
15699;SDS011;7950;42.744;23.174;2022-08-07T00:00:23;8.57;;;6.67;;
15699;SDS011;7950;42.744;23.174;2022-08-07T00:02:53;7.50;;;6.80;;
15699;SDS011;7950;42.744;23.174;2022-08-07T00:05:22;7.33;;;6.70;;
15699;SDS011;7950;42.744;23.174;2022-08-07T00:07:53;7.67;;;6.97;;
15699;SDS011;7950;42.744;23.174;2022-08-07T00:10:25;7.57;;;6.70;;
15699;SDS011;7950;42.744;23.174;2022-08-07T00:12:56;7.00;;;6.40;;
15699;SDS011;7950;42.744;23.174;2022-08-07T00:15:27;7.90;;;7.20;;
15699;SDS011;7950;42.744;23.174;2022-08-07T00:18:03;7.90;;;7.10;;
15699;SDS011;7950;42.744;23.174;2022-08-07T00:20:44;7.37;;;6.63;;
15699;SDS011;7950;42.744;23.174;2022-08-07T00:23:16;7.33;;;6.63;;
15699;SDS011;7950;42.744;23.174;2022-08-07T00:25:47;7.10;;;6.40;;
15699;SDS011;7950;42.744;23.174;2022-08-07T00:28:26;7.23;;;6.60;;
15699;SDS011;7950;42.744;23.174;2022-08-07T00:31:00;8.77;;;6.47;;
15699;SDS011;7950;42.744;23.174;2022-08-07T00:33:31;8.23;;;7.23;;
15699;SDS011;7950;42.744;23.174;2022-08-07T00:36:01;7.97;;;7.27;;
15699;SDS011;7950;42.744;23.174;2022-08-07T00:38:32;8.60;;;7.20;;
15699;SDS011;7950;42.744;23.174;2022-08-07T00:41:04;7.87;;;7.07;;
15699;SDS011;7950;42.744;23.174;2022-08-07T00:43:40;9.33;;;6.57;;
15699;SDS011;7950;42.744;23.174;2022-08-07T00:46:28;7.90;;;7.23;;
15699;SDS011;7950;42.744;23.174;2022-08-07T00:48:59;8.03;;;7.20;;
15699;SDS011;7950;42.744;23.174;2022-08-07T00:51:28;7.97;;;7.20;;
15699;SDS011;7950;42.744;23.174;2022-08-07T00:54:19;8.10;;;7.40;;
15699;SDS011;7950;42.744;23.174;2022-08-07T00:56:48;8.23;;;7.47;;
15699;SDS011;7950;42.744;23.174;2022-08-07T00:59:18;7.70;;;6.93;;
15699;SDS011;7950;42.744;23.174;2022-08-07T01:02:01;7.60;;;6.77;;
15699;SDS011;7950;42.744;23.174;2022-08-07T01:05:16;11.13;;;7.40;;
15699;SDS011;7950;42.744;23.174;2022-08-07T01:07:50;8.60;;;6.80;;
15699;SDS011;7950;42.744;23.174;2022-08-07T01:10:22;7.67;;;6.90;;
15699;SDS011;7950;42.744;23.174;2022-08-07T01:12:50;7.80;;;7.10;;
15699;SDS011;7950;42.744;23.174;2022-08-07T01:15:20;11.10;;;6.67;;
15699;SDS011;7950;42.744;23.174;2022-08-07T01:18:10;8.27;;;7.33;;
15699;SDS011;7950;42.744;23.174;2022-08-07T01:20:52;8.07;;;7.27;;
15699;SDS011;7950;42.744;23.174;2022-08-07T01:23:44;7.47;;;6.87;;
15699;SDS011;7950;42.744;23.174;2022-08-07T01:26:14;7.73;;;7.03;;
15699;SDS011;7950;42.744;23.174;2022-08-07T01:28:50;7.93;;;7.13;;
15699;SDS011;7950;42.744;23.174;2022-08-07T01:31:20;8.53;;;7.73;;
15699;SDS011;7950;42.744;23.174;2022-08-07T01:34:07;7.93;;;7.13;;
15699;SDS011;7950;42.744;23.174;2022-08-07T01:36:37;7.63;;;6.93;;
15699;SDS011;7950;42.744;23.174;2022-08-07T01:39:06;8.27;;;7.57;;
15699;SDS011;7950;42.744;23.174;2022-08-07T01:41:35;8.07;;;7.27;;
15699;SDS011;7950;42.744;23.174;2022-08-07T01:44:25;7.93;;;7.23;;
15699;SDS011;7950;42.744;23.174;2022-08-07T01:46:55;7.70;;;7.03;;
15699;SDS011;7950;42.744;23.174;2022-08-07T01:49:40;8.90;;;7.17;;
15699;SDS011;7950;42.744;23.174;2022-08-07T01:52:09;8.07;;;7.27;;
15699;SDS011;7950;42.744;23.174;2022-08-07T01:54:40;8.40;;;7.70;;
15699;SDS011;7950;42.744;23.174;2022-08-07T01:57:27;9.10;;;7.50;;
15699;SDS011;7950;42.744;23.174;2022-08-07T02:00:19;7.77;;;7.07;;
15699;SDS011;7950;42.744;23.174;2022-08-07T02:02:55;8.80;;;7.93;;
15699;SDS011;7950;42.744;23.174;2022-08-07T02:05:49;7.97;;;7.27;;
15699;SDS011;7950;42.744;23.174;2022-08-07T02:08:27;7.67;;;6.97;;
15699;SDS011;7950;42.744;23.174;2022-08-07T02:10:56;8.03;;;7.23;;
15699;SDS011;7950;42.744;23.174;2022-08-07T02:13:29;7.37;;;6.63;;
15699;SDS011;7950;42.744;23.174;2022-08-07T02:16:19;8.13;;;7.43;;
15699;SDS011;7950;42.744;23.174;2022-08-07T02:19:34;8.03;;;7.23;;
15699;SDS011;7950;42.744;23.174;2022-08-07T02:22:23;9.20;;;8.30;;
15699;SDS011;7950;42.744;23.174;2022-08-07T02:24:55;8.50;;;7.70;;
15699;SDS011;7950;42.744;23.174;2022-08-07T02:27:26;9.53;;;8.63;;
15699;SDS011;7950;42.744;23.174;2022-08-07T02:30:00;9.23;;;8.33;;
15699;SDS011;7950;42.744;23.174;2022-08-07T02:32:34;9.47;;;8.60;;
15699;SDS011;7950;42.744;23.174;2022-08-07T02:38:37;9.20;;;8.33;;
15699;SDS011;7950;42.744;23.174;2022-08-07T02:41:23;9.27;;;8.37;;
15699;SDS011;7950;42.744;23.174;2022-08-07T02:44:02;10.47;;;8.47;;
15699;SDS011;7950;42.744;23.174;2022-08-07T02:46:33;11.23;;;8.83;;
15699;SDS011;7950;42.744;23.174;2022-08-07T02:49:12;12.97;;;8.00;;
15699;SDS011;7950;42.744;23.174;2022-08-07T02:52:00;9.00;;;8.20;;
15699;SDS011;7950;42.744;23.174;2022-08-07T02:54:34;8.50;;;7.70;;
15699;SDS011;7950;42.744;23.174;2022-08-07T02:57:10;8.47;;;7.67;;
15699;SDS011;7950;42.744;23.174;2022-08-07T02:59:40;8.93;;;7.73;;
15699;SDS011;7950;42.744;23.174;2022-08-07T03:02:26;8.50;;;7.80;;
15699;SDS011;7950;42.744;23.174;2022-08-07T03:04:55;8.40;;;7.60;;
15699;SDS011;7950;42.744;23.174;2022-08-07T03:07:30;9.60;;;8.70;;
15699;SDS011;7950;42.744;23.174;2022-08-07T03:10:20;9.87;;;8.33;;
15699;SDS011;7950;42.744;23.174;2022-08-07T03:15:45;8.03;;;7.33;;
15699;SDS011;7950;42.744;23.174;2022-08-07T03:18:27;8.80;;;8.00;;
15699;SDS011;7950;42.744;23.174;2022-08-07T03:21:01;8.87;;;8.07;;
15699;SDS011;7950;42.744;23.174;2022-08-07T03:23:34;9.80;;;7.80;;
15699;SDS011;7950;42.744;23.174;2022-08-07T03:26:50;8.83;;;8.03;;
15699;SDS011;7950;42.744;23.174;2022-08-07T03:29:26;8.60;;;7.80;;
15699;SDS011;7950;42.744;23.174;2022-08-07T03:32:02;9.00;;;8.13;;
15699;SDS011;7950;42.744;23.174;2022-08-07T03:34:39;10.27;;;9.30;;
15699;SDS011;7950;42.744;23.174;2022-08-07T03:37:26;9.93;;;8.93;;
15699;SDS011;7950;42.744;23.174;2022-08-07T03:40:11;9.17;;;8.10;;
15699;SDS011;7950;42.744;23.174;2022-08-07T03:42:42;9.30;;;8.40;;
15699;SDS011;7950;42.744;23.174;2022-08-07T03:45:16;9.33;;;8.50;;
15699;SDS011;7950;42.744;23.174;2022-08-07T03:47:56;9.07;;;8.27;;
15699;SDS011;7950;42.744;23.174;2022-08-07T03:50:25;9.53;;;8.17;;
15699;SDS011;7950;42.744;23.174;2022-08-07T03:52:56;9.33;;;8.33;;
15699;SDS011;7950;42.744;23.174;2022-08-07T03:55:25;7.97;;;7.27;;
15699;SDS011;7950;42.744;23.174;2022-08-07T03:58:15;9.87;;;8.37;;
15699;SDS011;7950;42.744;23.174;2022-08-07T04:01:06;9.10;;;7.73;;
15699;SDS011;7950;42.744;23.174;2022-08-07T04:03:39;8.43;;;7.63;;
15699;SDS011;7950;42.744;23.174;2022-08-07T04:06:24;8.73;;;8.00;;
15699;SDS011;7950;42.744;23.174;2022-08-07T04:09:04;9.00;;;7.10;;
15699;SDS011;7950;42.744;23.174;2022-08-07T04:11:41;8.90;;;7.40;;
15699;SDS011;7950;42.744;23.174;2022-08-07T04:14:31;9.07;;;7.87;;
15699;SDS011;7950;42.744;23.174;2022-08-07T04:17:10;8.30;;;7.13;;
15699;SDS011;7950;42.744;23.174;2022-08-07T04:19:47;8.10;;;7.37;;
15699;SDS011;7950;42.744;23.174;2022-08-07T04:22:20;10.17;;;7.33;;
15699;SDS011;7950;42.744;23.174;2022-08-07T04:24:55;8.00;;;7.30;;
15699;SDS011;7950;42.744;23.174;2022-08-07T04:27:27;8.00;;;7.20;;
15699;SDS011;7950;42.744;23.174;2022-08-07T04:30:05;8.13;;;7.33;;
15699;SDS011;7950;42.744;23.174;2022-08-07T04:32:55;7.87;;;7.17;;
15699;SDS011;7950;42.744;23.174;2022-08-07T04:35:24;8.07;;;7.27;;
15699;SDS011;7950;42.744;23.174;2022-08-07T04:38:03;7.60;;;6.90;;
15699;SDS011;7950;42.744;23.174;2022-08-07T04:40:33;7.77;;;7.07;;
15699;SDS011;7950;42.744;23.174;2022-08-07T04:43:19;7.93;;;7.23;;
15699;SDS011;7950;42.744;23.174;2022-08-07T04:46:10;8.30;;;7.60;;
15699;SDS011;7950;42.744;23.174;2022-08-07T04:48:54;9.43;;;8.20;;
15699;SDS011;7950;42.744;23.174;2022-08-07T04:51:45;7.97;;;7.27;;
15699;SDS011;7950;42.744;23.174;2022-08-07T04:54:21;8.30;;;7.33;;
15699;SDS011;7950;42.744;23.174;2022-08-07T04:57:04;8.30;;;7.60;;
15699;SDS011;7950;42.744;23.174;2022-08-07T05:00:00;8.77;;;7.97;;
15699;SDS011;7950;42.744;23.174;2022-08-07T05:02:40;8.30;;;7.60;;
15699;SDS011;7950;42.744;23.174;2022-08-07T05:05:19;8.30;;;7.50;;
15699;SDS011;7950;42.744;23.174;2022-08-07T05:08:26;8.93;;;8.07;;
15699;SDS011;7950;42.744;23.174;2022-08-07T05:11:26;8.17;;;7.47;;
15699;SDS011;7950;42.744;23.174;2022-08-07T05:14:18;8.60;;;7.70;;
15699;SDS011;7950;42.744;23.174;2022-08-07T05:17:11;8.30;;;7.27;;
15699;SDS011;7950;42.744;23.174;2022-08-07T05:20:06;9.80;;;8.07;;
15699;SDS011;7950;42.744;23.174;2022-08-07T05:22:39;9.03;;;8.23;;
15699;SDS011;7950;42.744;23.174;2022-08-07T05:25:13;9.13;;;8.17;;
15699;SDS011;7950;42.744;23.174;2022-08-07T05:28:04;9.90;;;8.23;;
15699;SDS011;7950;42.744;23.174;2022-08-07T05:30:51;8.33;;;7.27;;
15699;SDS011;7950;42.744;23.174;2022-08-07T05:33:22;8.97;;;7.37;;
15699;SDS011;7950;42.744;23.174;2022-08-07T05:35:51;8.23;;;7.53;;
15699;SDS011;7950;42.744;23.174;2022-08-07T05:38:23;7.93;;;7.13;;
15699;SDS011;7950;42.744;23.174;2022-08-07T05:41:11;8.00;;;7.30;;
15699;SDS011;7950;42.744;23.174;2022-08-07T05:43:45;8.13;;;7.43;;
15699;SDS011;7950;42.744;23.174;2022-08-07T05:46:35;7.53;;;6.83;;
15699;SDS011;7950;42.744;23.174;2022-08-07T05:49:05;7.10;;;6.50;;
15699;SDS011;7950;42.744;23.174;2022-08-07T05:51:38;8.07;;;7.30;;
15699;SDS011;7950;42.744;23.174;2022-08-07T05:54:23;8.10;;;6.70;;
15699;SDS011;7950;42.744;23.174;2022-08-07T05:57:09;7.63;;;6.83;;
15699;SDS011;7950;42.744;23.174;2022-08-07T05:59:40;8.00;;;6.53;;
15699;SDS011;7950;42.744;23.174;2022-08-07T06:02:24;7.67;;;6.97;;
15699;SDS011;7950;42.744;23.174;2022-08-07T06:04:56;6.90;;;6.20;;
15699;SDS011;7950;42.744;23.174;2022-08-07T06:07:29;10.90;;;8.90;;
15699;SDS011;7950;42.744;23.174;2022-08-07T06:10:20;8.13;;;7.33;;
15699;SDS011;7950;42.744;23.174;2022-08-07T06:12:51;8.13;;;7.23;;
15699;SDS011;7950;42.744;23.174;2022-08-07T06:15:20;7.13;;;6.47;;
15699;SDS011;7950;42.744;23.174;2022-08-07T06:18:07;7.40;;;6.70;;
15699;SDS011;7950;42.744;23.174;2022-08-07T06:20:39;6.93;;;6.40;;
15699;SDS011;7950;42.744;23.174;2022-08-07T06:23:28;7.93;;;6.57;;
15699;SDS011;7950;42.744;23.174;2022-08-07T06:26:18;7.23;;;6.50;;
15699;SDS011;7950;42.744;23.174;2022-08-07T06:28:54;6.60;;;6.00;;
15699;SDS011;7950;42.744;23.174;2022-08-07T06:31:26;6.93;;;6.23;;
15699;SDS011;7950;42.744;23.174;2022-08-07T06:34:15;7.10;;;6.40;;
15699;SDS011;7950;42.744;23.174;2022-08-07T06:36:47;10.87;;;6.63;;
15699;SDS011;7950;42.744;23.174;2022-08-07T06:39:17;6.97;;;6.37;;
15699;SDS011;7950;42.744;23.174;2022-08-07T06:42:08;7.90;;;6.90;;
15699;SDS011;7950;42.744;23.174;2022-08-07T06:44:43;6.72;;;6.22;;
15699;SDS011;7950;42.744;23.174;2022-08-07T06:47:16;6.87;;;6.27;;
15699;SDS011;7950;42.744;23.174;2022-08-07T06:49:46;8.73;;;6.73;;
15699;SDS011;7950;42.744;23.174;2022-08-07T06:52:24;23.47;;;7.70;;
15699;SDS011;7950;42.744;23.174;2022-08-07T06:55:00;8.00;;;6.73;;
15699;SDS011;7950;42.744;23.174;2022-08-07T06:57:54;7.23;;;6.57;;
15699;SDS011;7950;42.744;23.174;2022-08-07T07:00:26;7.37;;;6.67;;
15699;SDS011;7950;42.744;23.174;2022-08-07T07:03:01;7.50;;;6.80;;
15699;SDS011;7950;42.744;23.174;2022-08-07T07:05:36;7.13;;;6.47;;
15699;SDS011;7950;42.744;23.174;2022-08-07T07:08:26;7.80;;;7.10;;
15699;SDS011;7950;42.744;23.174;2022-08-07T07:10:58;8.03;;;7.23;;
15699;SDS011;7950;42.744;23.174;2022-08-07T07:13:40;8.53;;;7.10;;
15699;SDS011;7950;42.744;23.174;2022-08-07T07:16:28;7.93;;;7.13;;
15699;SDS011;7950;42.744;23.174;2022-08-07T07:19:16;7.93;;;7.22;;
15699;SDS011;7950;42.744;23.174;2022-08-07T07:22:08;8.17;;;7.37;;
15699;SDS011;7950;42.744;23.174;2022-08-07T07:24:57;7.77;;;6.97;;
15699;SDS011;7950;42.744;23.174;2022-08-07T07:27:49;7.97;;;7.28;;
15699;SDS011;7950;42.744;23.174;2022-08-07T07:30:31;7.13;;;6.53;;
15699;SDS011;7950;42.744;23.174;2022-08-07T07:33:06;8.98;;;6.88;;
15699;SDS011;7950;42.744;23.174;2022-08-07T07:35:40;8.00;;;7.30;;
15699;SDS011;7950;42.744;23.174;2022-08-07T07:38:31;8.13;;;6.90;;
15699;SDS011;7950;42.744;23.174;2022-08-07T07:44:16;7.20;;;6.50;;
15699;SDS011;7950;42.744;23.174;2022-08-07T07:46:53;11.52;;;7.38;;
15699;SDS011;7950;42.744;23.174;2022-08-07T07:49:41;8.25;;;6.68;;
15699;SDS011;7950;42.744;23.174;2022-08-07T07:52:32;7.65;;;6.85;;
15699;SDS011;7950;42.744;23.174;2022-08-07T07:55:05;7.85;;;7.13;;
15699;SDS011;7950;42.744;23.174;2022-08-07T07:57:36;7.18;;;6.55;;
15699;SDS011;7950;42.744;23.174;2022-08-07T08:00:18;8.95;;;6.50;;
15699;SDS011;7950;42.744;23.174;2022-08-07T08:03:00;8.32;;;6.60;;
15699;SDS011;7950;42.744;23.174;2022-08-07T08:08:26;7.07;;;6.47;;
15699;SDS011;7950;42.744;23.174;2022-08-07T08:11:05;8.00;;;6.75;;
15699;SDS011;7950;42.744;23.174;2022-08-07T08:13:46;7.07;;;6.38;;
15699;SDS011;7950;42.744;23.174;2022-08-07T08:16:31;7.78;;;6.95;;
15699;SDS011;7950;42.744;23.174;2022-08-07T08:22:17;7.75;;;7.05;;
15699;SDS011;7950;42.744;23.174;2022-08-07T08:25:21;8.50;;;7.60;;
15699;SDS011;7950;42.744;23.174;2022-08-07T08:28:18;9.48;;;8.30;;
15699;SDS011;7950;42.744;23.174;2022-08-07T08:31:06;9.48;;;8.13;;
15699;SDS011;7950;42.744;23.174;2022-08-07T08:33:42;8.77;;;7.93;;
15699;SDS011;7950;42.744;23.174;2022-08-07T08:36:16;8.80;;;7.95;;
15699;SDS011;7950;42.744;23.174;2022-08-07T08:38:54;10.88;;;8.43;;
15699;SDS011;7950;42.744;23.174;2022-08-07T08:41:29;9.45;;;8.65;;
15699;SDS011;7950;42.744;23.174;2022-08-07T08:44:24;9.70;;;8.80;;
15699;SDS011;7950;42.744;23.174;2022-08-07T08:47:13;11.27;;;8.30;;
15699;SDS011;7950;42.744;23.174;2022-08-07T08:49:55;12.27;;;9.55;;
15699;SDS011;7950;42.744;23.174;2022-08-07T08:52:33;10.15;;;8.80;;
15699;SDS011;7950;42.744;23.174;2022-08-07T08:55:20;9.50;;;8.57;;
15699;SDS011;7950;42.744;23.174;2022-08-07T08:58:15;9.45;;;8.55;;
15699;SDS011;7950;42.744;23.174;2022-08-07T09:00:57;11.68;;;9.55;;
15699;SDS011;7950;42.744;23.174;2022-08-07T09:06:40;9.23;;;8.32;;
15699;SDS011;7950;42.744;23.174;2022-08-07T09:09:28;9.35;;;8.45;;
15699;SDS011;7950;42.744;23.174;2022-08-07T09:12:13;9.30;;;7.65;;
15699;SDS011;7950;42.744;23.174;2022-08-07T09:15:04;9.23;;;8.43;;
15699;SDS011;7950;42.744;23.174;2022-08-07T09:18:07;9.48;;;8.57;;
15699;SDS011;7950;42.744;23.174;2022-08-07T09:20:52;9.50;;;8.60;;
15699;SDS011;7950;42.744;23.174;2022-08-07T09:23:31;10.07;;;8.10;;
15699;SDS011;7950;42.744;23.174;2022-08-07T09:26:29;11.48;;;7.82;;
15699;SDS011;7950;42.744;23.174;2022-08-07T09:29:55;9.10;;;8.18;;
15699;SDS011;7950;42.744;23.174;2022-08-07T09:32:45;9.57;;;8.00;;
15699;SDS011;7950;42.744;23.174;2022-08-07T09:35:34;8.50;;;7.70;;
15699;SDS011;7950;42.744;23.174;2022-08-07T09:38:30;10.10;;;7.75;;
15699;SDS011;7950;42.744;23.174;2022-08-07T09:41:08;8.55;;;7.45;;
15699;SDS011;7950;42.744;23.174;2022-08-07T09:43:52;8.32;;;7.35;;
15699;SDS011;7950;42.744;23.174;2022-08-07T09:46:49;8.60;;;7.68;;
15699;SDS011;7950;42.744;23.174;2022-08-07T09:49:56;8.38;;;7.57;;
15699;SDS011;7950;42.744;23.174;2022-08-07T09:52:47;8.70;;;7.72;;
15699;SDS011;7950;42.744;23.174;2022-08-07T09:55:20;9.98;;;7.45;;
15699;SDS011;7950;42.744;23.174;2022-08-07T09:58:22;8.63;;;7.25;;
15699;SDS011;7950;42.744;23.174;2022-08-07T10:01:12;7.72;;;7.03;;
15699;SDS011;7950;42.744;23.174;2022-08-07T10:04:44;8.52;;;6.80;;
15699;SDS011;7950;42.744;23.174;2022-08-07T10:07:42;6.90;;;6.30;;
15699;SDS011;7950;42.744;23.174;2022-08-07T10:14:03;7.60;;;6.90;;
15699;SDS011;7950;42.744;23.174;2022-08-07T10:16:57;8.18;;;7.07;;
15699;SDS011;7950;42.744;23.174;2022-08-07T10:19:45;13.27;;;6.93;;
15699;SDS011;7950;42.744;23.174;2022-08-07T10:22:31;25.35;;;7.65;;
15699;SDS011;7950;42.744;23.174;2022-08-07T10:28:29;14.05;;;6.45;;
15699;SDS011;7950;42.744;23.174;2022-08-07T10:31:20;7.53;;;6.25;;
15699;SDS011;7950;42.744;23.174;2022-08-07T10:34:12;6.90;;;6.30;;
15699;SDS011;7950;42.744;23.174;2022-08-07T10:36:59;8.15;;;6.20;;
15699;SDS011;7950;42.744;23.174;2022-08-07T10:39:43;8.70;;;6.22;;
15699;SDS011;7950;42.744;23.174;2022-08-07T10:42:34;7.55;;;6.50;;
15699;SDS011;7950;42.744;23.174;2022-08-07T10:45:16;8.48;;;6.97;;
15699;SDS011;7950;42.744;23.174;2022-08-07T10:48:24;7.28;;;6.57;;
15699;SDS011;7950;42.744;23.174;2022-08-07T10:51:04;10.18;;;7.20;;
15699;SDS011;7950;42.744;23.174;2022-08-07T10:53:56;8.02;;;7.22;;
15699;SDS011;7950;42.744;23.174;2022-08-07T10:56:35;7.38;;;6.20;;
15699;SDS011;7950;42.744;23.174;2022-08-07T10:59:16;6.85;;;6.05;;
15699;SDS011;7950;42.744;23.174;2022-08-07T11:01:57;7.05;;;6.28;;
15699;SDS011;7950;42.744;23.174;2022-08-07T11:04:58;7.13;;;6.43;;
15699;SDS011;7950;42.744;23.174;2022-08-07T11:07:39;9.38;;;6.00;;
15699;SDS011;7950;42.744;23.174;2022-08-07T11:10:28;11.05;;;6.55;;
15699;SDS011;7950;42.744;23.174;2022-08-07T11:16:18;8.10;;;6.55;;
15699;SDS011;7950;42.744;23.174;2022-08-07T11:18:57;7.68;;;6.78;;
15699;SDS011;7950;42.744;23.174;2022-08-07T11:21:38;7.85;;;7.00;;
15699;SDS011;7950;42.744;23.174;2022-08-07T11:24:16;8.85;;;6.80;;
15699;SDS011;7950;42.744;23.174;2022-08-07T11:26:49;8.13;;;6.63;;
15699;SDS011;7950;42.744;23.174;2022-08-07T11:29:27;11.68;;;7.30;;
15699;SDS011;7950;42.744;23.174;2022-08-07T11:32:10;7.95;;;7.22;;
15699;SDS011;7950;42.744;23.174;2022-08-07T11:35:27;7.88;;;7.07;;
15699;SDS011;7950;42.744;23.174;2022-08-07T11:38:00;7.80;;;7.10;;
15699;SDS011;7950;42.744;23.174;2022-08-07T11:40:45;9.30;;;6.82;;
15699;SDS011;7950;42.744;23.174;2022-08-07T11:43:18;6.88;;;5.97;;
15699;SDS011;7950;42.744;23.174;2022-08-07T11:46:08;7.57;;;6.88;;
15699;SDS011;7950;42.744;23.174;2022-08-07T11:48:57;7.30;;;6.60;;
15699;SDS011;7950;42.744;23.174;2022-08-07T11:52:03;8.07;;;7.30;;
15699;SDS011;7950;42.744;23.174;2022-08-07T11:55:00;7.80;;;7.05;;
15699;SDS011;7950;42.744;23.174;2022-08-07T11:57:50;7.90;;;7.10;;
15699;SDS011;7950;42.744;23.174;2022-08-07T12:00:29;7.95;;;7.05;;
15699;SDS011;7950;42.744;23.174;2022-08-07T12:06:22;8.50;;;7.70;;
15699;SDS011;7950;42.744;23.174;2022-08-07T12:09:08;13.38;;;8.13;;
15699;SDS011;7950;42.744;23.174;2022-08-07T12:18:02;20.00;;;7.57;;
15699;SDS011;7950;42.744;23.174;2022-08-07T12:20:40;8.13;;;7.43;;
15699;SDS011;7950;42.744;23.174;2022-08-07T12:23:19;8.25;;;7.45;;
15699;SDS011;7950;42.744;23.174;2022-08-07T12:26:21;12.98;;;7.60;;
15699;SDS011;7950;42.744;23.174;2022-08-07T12:32:16;10.20;;;7.35;;
15699;SDS011;7950;42.744;23.174;2022-08-07T12:37:49;8.38;;;7.68;;
15699;SDS011;7950;42.744;23.174;2022-08-07T12:40:37;8.95;;;8.15;;
15699;SDS011;7950;42.744;23.174;2022-08-07T12:43:14;7.97;;;7.25;;
15699;SDS011;7950;42.744;23.174;2022-08-07T12:46:08;8.50;;;7.70;;
15699;SDS011;7950;42.744;23.174;2022-08-07T12:49:01;8.27;;;7.57;;
15699;SDS011;7950;42.744;23.174;2022-08-07T12:51:58;8.60;;;7.80;;
15699;SDS011;7950;42.744;23.174;2022-08-07T12:54:45;8.48;;;7.68;;
15699;SDS011;7950;42.744;23.174;2022-08-07T12:57:26;17.33;;;7.82;;
15699;SDS011;7950;42.744;23.174;2022-08-07T13:00:17;8.32;;;7.50;;
15699;SDS011;7950;42.744;23.174;2022-08-07T13:03:06;8.38;;;7.57;;
15699;SDS011;7950;42.744;23.174;2022-08-07T13:05:57;8.77;;;7.60;;
15699;SDS011;7950;42.744;23.174;2022-08-07T13:08:55;8.18;;;7.38;;
15699;SDS011;7950;42.744;23.174;2022-08-07T13:11:57;7.82;;;7.10;;
15699;SDS011;7950;42.744;23.174;2022-08-07T13:14:42;8.95;;;7.45;;
15699;SDS011;7950;42.744;23.174;2022-08-07T13:20:30;10.10;;;7.00;;
15699;SDS011;7950;42.744;23.174;2022-08-07T13:23:13;7.57;;;6.88;;
15699;SDS011;7950;42.744;23.174;2022-08-07T13:26:12;8.35;;;7.05;;
15699;SDS011;7950;42.744;23.174;2022-08-07T13:28:54;7.97;;;6.82;;
15699;SDS011;7950;42.744;23.174;2022-08-07T13:31:28;8.57;;;6.68;;
15699;SDS011;7950;42.744;23.174;2022-08-07T13:34:22;7.88;;;6.95;;
15699;SDS011;7950;42.744;23.174;2022-08-07T13:37:02;8.23;;;7.30;;
15699;SDS011;7950;42.744;23.174;2022-08-07T13:39:48;7.38;;;6.68;;
15699;SDS011;7950;42.744;23.174;2022-08-07T13:42:42;7.40;;;6.63;;
15699;SDS011;7950;42.744;23.174;2022-08-07T13:45:14;7.38;;;6.53;;
15699;SDS011;7950;42.744;23.174;2022-08-07T13:48:04;13.13;;;6.97;;
15699;SDS011;7950;42.744;23.174;2022-08-07T13:50:47;7.22;;;6.40;;
15699;SDS011;7950;42.744;23.174;2022-08-07T13:53:27;7.13;;;6.43;;
15699;SDS011;7950;42.744;23.174;2022-08-07T13:56:33;7.53;;;6.70;;
15699;SDS011;7950;42.744;23.174;2022-08-07T13:59:18;19.77;;;7.60;;
15699;SDS011;7950;42.744;23.174;2022-08-07T14:01:53;7.75;;;7.05;;
15699;SDS011;7950;42.744;23.174;2022-08-07T14:04:30;11.70;;;7.00;;
15699;SDS011;7950;42.744;23.174;2022-08-07T14:07:20;11.88;;;7.38;;
15699;SDS011;7950;42.744;23.174;2022-08-07T14:12:55;12.63;;;8.13;;
15699;SDS011;7950;42.744;23.174;2022-08-07T14:15:30;16.53;;;9.00;;
15699;SDS011;7950;42.744;23.174;2022-08-07T14:18:02;10.17;;;7.70;;
15699;SDS011;7950;42.744;23.174;2022-08-07T14:20:57;8.57;;;7.73;;
15699;SDS011;7950;42.744;23.174;2022-08-07T14:23:37;11.23;;;8.67;;
15699;SDS011;7950;42.744;23.174;2022-08-07T14:26:32;11.60;;;8.30;;
15699;SDS011;7950;42.744;23.174;2022-08-07T14:29:31;11.87;;;8.17;;
15699;SDS011;7950;42.744;23.174;2022-08-07T14:32:36;11.30;;;8.70;;
15699;SDS011;7950;42.744;23.174;2022-08-07T14:35:23;10.03;;;8.37;;
15699;SDS011;7950;42.744;23.174;2022-08-07T14:38:15;11.93;;;8.00;;
15699;SDS011;7950;42.744;23.174;2022-08-07T14:40:57;10.13;;;8.30;;
15699;SDS011;7950;42.744;23.174;2022-08-07T14:43:32;11.33;;;9.37;;
15699;SDS011;7950;42.744;23.174;2022-08-07T14:46:31;10.17;;;8.47;;
15699;SDS011;7950;42.744;23.174;2022-08-07T14:49:01;10.10;;;8.53;;
15699;SDS011;7950;42.744;23.174;2022-08-07T14:52:14;10.57;;;8.60;;
15699;SDS011;7950;42.744;23.174;2022-08-07T14:54:53;8.67;;;7.83;;
15699;SDS011;7950;42.744;23.174;2022-08-07T14:57:23;8.97;;;8.07;;
15699;SDS011;7950;42.744;23.174;2022-08-07T15:00:13;9.30;;;8.50;;
15699;SDS011;7950;42.744;23.174;2022-08-07T15:02:57;9.67;;;8.67;;
15699;SDS011;7950;42.744;23.174;2022-08-07T15:05:45;9.43;;;8.57;;
15699;SDS011;7950;42.744;23.174;2022-08-07T15:11:40;8.93;;;8.13;;
15699;SDS011;7950;42.744;23.174;2022-08-07T15:14:26;10.07;;;9.17;;
15699;SDS011;7950;42.744;23.174;2022-08-07T15:16:57;9.30;;;8.50;;
15699;SDS011;7950;42.744;23.174;2022-08-07T15:19:32;10.07;;;9.10;;
15699;SDS011;7950;42.744;23.174;2022-08-07T15:25:20;9.90;;;8.38;;
15699;SDS011;7950;42.744;23.174;2022-08-07T15:28:03;9.97;;;9.07;;
15699;SDS011;7950;42.744;23.174;2022-08-07T15:30:54;9.83;;;8.97;;
15699;SDS011;7950;42.744;23.174;2022-08-07T15:33:31;10.30;;;9.40;;
15699;SDS011;7950;42.744;23.174;2022-08-07T15:38:38;10.50;;;9.40;;
15699;SDS011;7950;42.744;23.174;2022-08-07T15:41:24;9.23;;;8.43;;
15699;SDS011;7950;42.744;23.174;2022-08-07T15:44:18;9.23;;;8.30;;
15699;SDS011;7950;42.744;23.174;2022-08-07T15:46:54;9.97;;;9.07;;
15699;SDS011;7950;42.744;23.174;2022-08-07T15:49:33;10.10;;;9.20;;
15699;SDS011;7950;42.744;23.174;2022-08-07T15:52:25;10.00;;;9.20;;
15699;SDS011;7950;42.744;23.174;2022-08-07T15:54:59;10.13;;;9.23;;
15699;SDS011;7950;42.744;23.174;2022-08-07T15:57:37;9.90;;;8.90;;
15699;SDS011;7950;42.744;23.174;2022-08-07T16:00:19;10.23;;;9.23;;
15699;SDS011;7950;42.744;23.174;2022-08-07T16:03:03;9.35;;;8.45;;
15699;SDS011;7950;42.744;23.174;2022-08-07T16:05:56;8.63;;;7.93;;
15699;SDS011;7950;42.744;23.174;2022-08-07T16:08:29;8.93;;;8.23;;
15699;SDS011;7950;42.744;23.174;2022-08-07T16:11:05;9.90;;;9.10;;
15699;SDS011;7950;42.744;23.174;2022-08-07T16:14:02;9.23;;;8.43;;
15699;SDS011;7950;42.744;23.174;2022-08-07T16:22:46;9.90;;;9.10;;
15699;SDS011;7950;42.744;23.174;2022-08-07T16:28:41;9.43;;;8.60;;
15699;SDS011;7950;42.744;23.174;2022-08-07T16:31:51;10.30;;;9.40;;
15699;SDS011;7950;42.744;23.174;2022-08-07T16:34:37;9.90;;;9.00;;
15699;SDS011;7950;42.744;23.174;2022-08-07T16:41:18;10.73;;;9.73;;
15699;SDS011;7950;42.744;23.174;2022-08-07T16:50:59;10.23;;;9.33;;
15699;SDS011;7950;42.744;23.174;2022-08-07T16:53:58;10.47;;;9.50;;
15699;SDS011;7950;42.744;23.174;2022-08-07T16:56:49;9.67;;;8.77;;
15699;SDS011;7950;42.744;23.174;2022-08-07T16:59:37;10.60;;;9.00;;
15699;SDS011;7950;42.744;23.174;2022-08-07T17:02:23;10.47;;;9.47;;
15699;SDS011;7950;42.744;23.174;2022-08-07T17:08:57;12.43;;;8.60;;
15699;SDS011;7950;42.744;23.174;2022-08-07T17:12:04;9.63;;;8.73;;
15699;SDS011;7950;42.744;23.174;2022-08-07T17:15:00;10.43;;;9.33;;
15699;SDS011;7950;42.744;23.174;2022-08-07T17:17:41;11.07;;;10.07;;
15699;SDS011;7950;42.744;23.174;2022-08-07T17:20:28;10.47;;;9.43;;
15699;SDS011;7950;42.744;23.174;2022-08-07T17:23:00;10.63;;;9.60;;
15699;SDS011;7950;42.744;23.174;2022-08-07T17:29:00;10.77;;;9.87;;
15699;SDS011;7950;42.744;23.174;2022-08-07T17:31:38;10.37;;;9.23;;
15699;SDS011;7950;42.744;23.174;2022-08-07T17:34:33;10.47;;;9.40;;
15699;SDS011;7950;42.744;23.174;2022-08-07T17:37:24;10.80;;;9.60;;
15699;SDS011;7950;42.744;23.174;2022-08-07T17:40:18;10.50;;;9.50;;
15699;SDS011;7950;42.744;23.174;2022-08-07T17:43:00;10.53;;;9.53;;
15699;SDS011;7950;42.744;23.174;2022-08-07T17:45:55;11.00;;;9.90;;